Time;durP1;ratioP1;P1;durP2;ratioP2;P2;SDS_P1;SDS_P2;PMS_P1;PMS_P2;Temp;Humidity;BMP_temperature;BMP_pressure;BME280_temperature;BME280_humidity;BME280_pressure;Samples;Min_cycle;Max_cycle;Signal;HPM_P1;HPM_P2
2022/12/22 03:28:05;;;;;;;1.70;0.50;;;21.10;99.90;;;;;;5115536;27;20562;-77
2022/12/22 03:30:36;;;;;;;6.03;0.93;;;21.30;99.90;;;;;;5113080;27;20669;-77
2022/12/22 03:33:08;;;;;;;3.47;0.70;;;21.50;99.90;;;;;;5113284;27;20274;-77
2022/12/22 03:35:40;;;;;;;2.55;0.88;;;21.60;99.90;;;;;;5116145;27;20697;-77
2022/12/22 03:38:11;;;;;;;3.70;0.70;;;21.60;99.90;;;;;;5114128;27;20231;-76
2022/12/22 03:40:42;;;;;;;2.13;0.77;;;21.70;99.90;;;;;;5111261;27;20199;-78
2022/12/22 03:49:08;;;;;;;1.75;0.50;;;21.90;99.90;;;;;;5109119;27;20203;-77
2022/12/22 03:51:43;;;;;;;3.55;0.70;;;21.80;99.90;;;;;;5112444;27;20191;-78
2022/12/22 03:54:16;;;;;;;1.73;0.47;;;21.70;99.90;;;;;;5110521;28;20187;-80
2022/12/22 03:56:47;;;;;;;3.85;0.60;;;21.70;99.90;;;;;;5111398;27;20214;-78
2022/12/22 03:59:19;;;;;;;1.95;0.50;;;21.80;99.90;;;;;;5120355;27;20191;-78
2022/12/22 04:01:51;;;;;;;3.10;0.63;;;21.70;99.90;;;;;;5112006;27;20202;-76
2022/12/22 04:04:24;;;;;;;0.57;0.50;;;21.70;99.90;;;;;;5112244;28;20203;-77
2022/12/22 04:06:57;;;;;;;3.22;0.77;;;21.60;99.90;;;;;;5122082;27;20286;-79
2022/12/22 04:09:28;;;;;;;2.58;0.80;;;21.60;99.90;;;;;;5109959;28;20191;-77
2022/12/22 04:14:45;;;;;;;2.28;0.77;;;21.80;99.90;;;;;;5109019;28;20268;-78
2022/12/22 04:17:16;;;;;;;3.50;0.60;;;21.80;99.90;;;;;;5109581;28;20219;-76
2022/12/22 04:19:46;;;;;;;3.45;0.50;;;21.70;99.90;;;;;;5105906;27;20195;-78
2022/12/22 04:22:19;;;;;;;1.58;0.50;;;21.70;99.90;;;;;;5119306;27;20713;-77
2022/12/22 04:24:50;;;;;;;3.10;0.65;;;21.70;99.90;;;;;;5109451;28;20560;-78
2022/12/22 04:27:20;;;;;;;1.77;0.50;;;21.60;99.90;;;;;;5110464;28;20202;-77
2022/12/22 04:29:51;;;;;;;2.75;0.57;;;21.60;99.90;;;;;;5111558;28;20564;-77
2022/12/22 04:32:22;;;;;;;2.08;0.50;;;21.60;99.90;;;;;;5100171;28;20676;-78
2022/12/22 04:34:53;;;;;;;3.42;0.70;;;21.60;99.90;;;;;;5110496;28;20214;-77
2022/12/22 04:37:25;;;;;;;3.58;0.60;;;21.60;99.90;;;;;;5117129;28;20700;-78
2022/12/22 04:39:56;;;;;;;4.60;0.65;;;21.70;99.90;;;;;;5113655;27;20710;-78
2022/12/22 04:42:27;;;;;;;1.52;0.43;;;21.70;99.90;;;;;;5101539;28;20279;-78
2022/12/22 04:44:58;;;;;;;4.28;0.63;;;21.70;99.90;;;;;;5114949;27;20209;-76
2022/12/22 04:47:28;;;;;;;1.83;0.60;;;21.60;99.90;;;;;;5131974;27;20282;-79
2022/12/22 04:49:59;;;;;;;3.15;0.63;;;21.50;99.90;;;;;;5119096;27;20230;-77
2022/12/22 04:52:32;;;;;;;1.92;0.60;;;21.30;99.90;;;;;;5127057;28;20282;-78
2022/12/22 04:55:03;;;;;;;2.60;0.70;;;21.40;99.90;;;;;;5111013;28;20204;-77
2022/12/22 04:57:33;;;;;;;2.97;0.68;;;21.40;99.90;;;;;;5123411;28;20220;-77
2022/12/22 05:00:04;;;;;;;2.50;0.63;;;21.40;99.90;;;;;;5115289;27;20191;-76
2022/12/22 05:02:35;;;;;;;6.07;0.90;;;21.50;99.90;;;;;;5115668;28;20190;-78
2022/12/22 05:05:06;;;;;;;1.65;0.50;;;21.50;99.90;;;;;;5133664;27;20705;-75
2022/12/22 05:07:39;;;;;;;2.10;0.60;;;21.40;99.90;;;;;;5092654;28;20282;-77
2022/12/22 05:10:11;;;;;;;2.17;0.63;;;21.40;99.90;;;;;;5093094;28;20645;-77
2022/12/22 05:12:57;;;;;;;2.83;0.50;;;21.40;99.90;;;;;;5093024;28;20650;-78
2022/12/22 05:15:29;;;;;;;2.83;0.57;;;21.30;99.90;;;;;;5095433;28;20188;-77
2022/12/22 05:18:01;;;;;;;2.80;0.50;;;21.30;99.90;;;;;;5112815;28;20211;-78
2022/12/22 05:20:32;;;;;;;1.52;0.40;;;21.30;99.90;;;;;;5113241;28;20188;-78
2022/12/22 05:23:05;;;;;;;3.15;1.10;;;21.30;99.90;;;;;;5110841;28;20619;-78
2022/12/22 05:25:35;;;;;;;1.80;0.60;;;21.30;99.90;;;;;;5116603;28;20190;-77
2022/12/22 05:28:06;;;;;;;2.08;0.70;;;21.20;99.90;;;;;;5115189;28;20259;-78
2022/12/22 05:30:37;;;;;;;2.92;0.50;;;21.10;99.90;;;;;;5112880;28;20183;-75
2022/12/22 05:33:08;;;;;;;1.95;0.70;;;21.00;99.90;;;;;;5116605;27;20690;-78
2022/12/22 05:35:39;;;;;;;1.98;0.60;;;21.00;99.90;;;;;;5104845;28;20701;-76
2022/12/22 05:38:11;;;;;;;2.60;1.83;;;21.00;99.90;;;;;;5113785;28;20235;-77
2022/12/22 05:40:42;;;;;;;8.93;6.13;;;20.90;99.90;;;;;;5116061;28;20621;-77
2022/12/22 05:43:13;;;;;;;2.28;0.73;;;21.00;99.90;;;;;;5115956;28;20266;-75
2022/12/22 05:45:45;;;;;;;1.40;0.65;;;21.00;99.90;;;;;;5116063;28;20271;-77
2022/12/22 05:48:16;;;;;;;2.15;0.70;;;21.00;99.90;;;;;;5116383;28;20274;-76
2022/12/22 05:50:47;;;;;;;3.25;0.57;;;20.90;99.90;;;;;;5113148;28;20202;-75
2022/12/22 05:53:20;;;;;;;3.80;0.80;;;20.70;99.90;;;;;;5116203;28;20214;-76
2022/12/22 05:55:51;;;;;;;1.98;0.57;;;20.50;99.90;;;;;;5116170;28;20271;-76
2022/12/22 05:58:22;;;;;;;1.83;0.43;;;20.30;99.90;;;;;;5114798;28;20207;-75
2022/12/22 06:00:52;;;;;;;4.13;0.80;;;20.20;99.90;;;;;;5116093;28;20278;-75
2022/12/22 06:03:23;;;;;;;3.25;0.80;;;20.10;99.90;;;;;;5115492;28;20202;-77
2022/12/22 06:05:54;;;;;;;2.75;0.73;;;20.10;99.90;;;;;;5114834;28;20183;-76
2022/12/22 06:08:27;;;;;;;3.63;0.77;;;20.20;99.90;;;;;;5115496;28;20279;-77
2022/12/22 06:11:00;;;;;;;2.25;0.70;;;20.10;99.90;;;;;;5116103;28;20188;-77
2022/12/22 06:13:31;;;;;;;3.35;0.60;;;20.10;99.90;;;;;;5115839;28;20263;-78
2022/12/22 06:16:02;;;;;;;2.00;0.90;;;20.10;99.90;;;;;;5115358;28;20192;-76
2022/12/22 06:18:33;;;;;;;2.60;0.60;;;20.10;99.90;;;;;;5113478;28;20215;-78
2022/12/22 06:21:04;;;;;;;3.60;0.73;;;20.10;99.90;;;;;;5109313;28;20188;-78
2022/12/22 06:23:36;;;;;;;5.10;0.73;;;20.00;99.90;;;;;;5095563;28;20189;-77
2022/12/22 06:26:07;;;;;;;2.35;0.65;;;20.00;99.90;;;;;;5101280;28;20274;-79
2022/12/22 06:28:38;;;;;;;4.03;0.93;;;20.00;99.90;;;;;;5115232;28;20199;-76
2022/12/22 06:31:09;;;;;;;5.25;1.17;;;20.00;99.90;;;;;;5115698;28;20210;-77
2022/12/22 06:33:40;;;;;;;2.28;0.70;;;20.10;99.90;;;;;;5115094;28;20712;-78
2022/12/22 06:36:11;;;;;;;4.20;1.08;;;20.00;99.90;;;;;;5115104;28;20222;-76
2022/12/22 06:38:45;;;;;;;2.05;0.70;;;20.00;99.90;;;;;;5115096;28;20662;-78
2022/12/22 06:43:07;;;;;;;2.85;0.68;;;19.90;99.90;;;;;;5114831;28;20618;-77
2022/12/22 06:44:05;;;;;;;4.07;0.55;;;19.90;99.90;;;;;;5094947;28;20193;-78
2022/12/22 06:46:37;;;;;;;2.65;0.73;;;19.80;99.90;;;;;;5113847;28;20264;-78
2022/12/22 06:49:08;;;;;;;5.10;0.70;;;19.80;99.90;;;;;;5114198;28;20554;-78
2022/12/22 06:51:39;;;;;;;3.40;0.80;;;19.90;99.90;;;;;;5114322;28;20191;-78
2022/12/22 06:54:11;;;;;;;1.55;0.80;;;19.90;99.90;;;;;;5113777;28;20657;-78
2022/12/22 06:56:42;;;;;;;1.77;0.60;;;19.90;99.90;;;;;;5114943;28;20274;-78
2022/12/22 06:59:13;;;;;;;4.70;0.80;;;19.80;99.90;;;;;;5094734;28;20198;-78
2022/12/22 07:01:44;;;;;;;1.85;0.57;;;19.90;99.90;;;;;;5110513;28;20188;-78
2022/12/22 07:04:18;;;;;;;1.63;0.50;;;19.90;99.90;;;;;;5094489;28;20188;-78
2022/12/22 07:06:49;;;;;;;3.45;0.70;;;19.80;99.90;;;;;;5104187;28;20187;-77
2022/12/22 07:09:22;;;;;;;1.95;0.70;;;19.80;99.90;;;;;;5114916;28;20219;-77
2022/12/22 07:11:52;;;;;;;3.70;0.90;;;19.80;99.90;;;;;;5114985;28;20275;-79
2022/12/22 07:14:23;;;;;;;2.78;0.75;;;19.70;99.90;;;;;;5114780;28;20554;-77
2022/12/22 07:16:54;;;;;;;1.27;0.70;;;19.70;99.90;;;;;;5114670;28;20184;-77
2022/12/22 07:19:25;;;;;;;4.22;1.00;;;19.70;99.90;;;;;;5108300;28;20265;-78
2022/12/22 07:21:55;;;;;;;2.42;0.70;;;19.60;99.90;;;;;;5114755;28;20626;-78
2022/12/22 07:24:28;;;;;;;1.90;0.80;;;19.60;99.90;;;;;;5113769;28;20286;-77
2022/12/22 07:26:59;;;;;;;1.60;0.63;;;19.60;99.90;;;;;;5110523;27;20195;-77
2022/12/22 07:29:30;;;;;;;1.85;0.70;;;19.60;99.90;;;;;;5100073;28;20190;-78
2022/12/22 07:32:00;;;;;;;1.80;0.80;;;19.50;99.90;;;;;;5112588;28;20258;-78
2022/12/22 07:34:31;;;;;;;2.42;0.77;;;19.50;99.90;;;;;;5124432;27;20289;-78
2022/12/22 07:37:02;;;;;;;4.18;0.88;;;19.50;99.90;;;;;;5108198;28;20281;-78
2022/12/22 07:39:35;;;;;;;4.18;0.90;;;19.40;99.90;;;;;;5109667;27;20191;-78
2022/12/22 07:44:52;;;;;;;1.55;0.73;;;19.20;99.90;;;;;;5114170;28;20658;-79
2022/12/22 07:47:23;;;;;;;3.40;0.80;;;19.20;99.90;;;;;;5114118;28;20631;-77
2022/12/22 07:52:40;;;;;;;6.00;1.20;;;19.10;99.90;;;;;;5109732;28;20195;-78
2022/12/22 07:55:13;;;;;;;4.28;1.27;;;19.10;99.90;;;;;;5093969;28;20224;-78
2022/12/22 07:57:44;;;;;;;3.88;1.55;;;19.10;99.90;;;;;;5109272;28;20682;-79
2022/12/22 08:00:16;;;;;;;3.97;1.60;;;19.10;99.90;;;;;;5114092;28;20184;-78
2022/12/22 08:02:51;;;;;;;3.17;1.25;;;19.10;99.90;;;;;;5111113;28;20203;-78
2022/12/22 08:05:24;;;;;;;3.28;1.40;;;19.10;99.90;;;;;;5113705;28;20274;-78
2022/12/22 08:07:55;;;;;;;3.15;1.40;;;19.00;99.90;;;;;;5109072;28;20209;-78
2022/12/22 08:10:28;;;;;;;3.42;1.10;;;19.10;99.90;;;;;;5113418;28;20188;-78
2022/12/22 08:12:59;;;;;;;3.63;1.10;;;19.10;99.90;;;;;;5105243;28;20566;-78
2022/12/22 08:15:29;;;;;;;3.03;1.30;;;19.10;99.90;;;;;;5118453;27;20195;-77
2022/12/22 08:18:00;;;;;;;3.28;1.33;;;19.00;99.90;;;;;;5098354;28;20225;-78
2022/12/22 08:20:31;;;;;;;3.13;1.23;;;19.00;99.90;;;;;;5119857;27;20191;-77
2022/12/22 08:23:02;;;;;;;4.80;1.40;;;19.00;99.90;;;;;;5114356;28;20476;-77
2022/12/22 08:25:36;;;;;;;3.50;1.27;;;19.00;99.90;;;;;;5116894;28;20214;-77
2022/12/22 08:28:07;;;;;;;2.55;1.20;;;19.00;99.90;;;;;;5111691;28;20195;-78
2022/12/22 08:30:38;;;;;;;2.90;1.40;;;19.00;99.90;;;;;;5101887;28;20270;-78
2022/12/22 08:33:08;;;;;;;1.83;1.20;;;19.00;99.90;;;;;;5112712;28;20275;-78
2022/12/22 08:35:39;;;;;;;3.78;1.60;;;19.00;99.90;;;;;;5107867;28;20293;-79
2022/12/22 08:38:12;;;;;;;6.05;1.60;;;19.00;99.90;;;;;;5112556;28;20322;-78
2022/12/22 08:40:46;;;;;;;2.30;1.60;;;19.00;99.90;;;;;;5125384;28;20199;-78
2022/12/22 08:43:18;;;;;;;4.65;1.45;;;19.00;99.90;;;;;;5113298;28;20213;-78
2022/12/22 08:45:49;;;;;;;2.63;1.20;;;19.00;99.90;;;;;;5111447;28;20195;-78
2022/12/22 08:48:20;;;;;;;5.05;1.15;;;19.00;99.90;;;;;;5122066;27;20278;-78
2022/12/22 08:50:50;;;;;;;2.28;1.00;;;19.00;99.90;;;;;;5129651;28;20238;-79
2022/12/22 08:53:21;;;;;;;2.72;1.13;;;19.00;99.90;;;;;;5120494;27;20201;-78
2022/12/22 08:55:57;;;;;;;1.50;1.00;;;19.00;99.90;;;;;;5113836;28;20271;-78
2022/12/22 08:58:28;;;;;;;3.67;1.10;;;19.00;99.90;;;;;;5116691;28;20206;-79
2022/12/22 09:00:59;;;;;;;5.05;1.15;;;18.90;99.90;;;;;;5117151;28;20274;-77
2022/12/22 09:03:29;;;;;;;3.63;0.90;;;18.90;99.90;;;;;;5113986;28;20621;-77
2022/12/22 09:06:04;;;;;;;3.53;1.05;;;18.80;99.90;;;;;;5117754;27;20548;-77
2022/12/22 09:08:34;;;;;;;3.25;0.90;;;18.80;99.90;;;;;;5130005;27;20198;-77
2022/12/22 09:11:08;;;;;;;5.20;1.33;;;18.80;99.90;;;;;;5138130;27;20614;-77
2022/12/22 09:13:39;;;;;;;4.35;0.95;;;18.80;99.90;;;;;;5116796;27;20684;-78
2022/12/22 09:16:10;;;;;;;6.53;1.02;;;18.80;99.90;;;;;;5113854;27;20273;-77
2022/12/22 09:18:41;;;;;;;2.42;0.90;;;18.80;99.90;;;;;;5117184;27;20269;-78
2022/12/22 09:21:12;;;;;;;3.78;1.10;;;18.70;99.90;;;;;;5120755;27;20187;-78
2022/12/22 09:23:43;;;;;;;4.88;1.13;;;18.70;99.90;;;;;;5137501;27;20187;-79
2022/12/22 09:26:17;;;;;;;3.17;1.23;;;18.70;99.90;;;;;;5137544;27;20195;-78
2022/12/22 09:28:48;;;;;;;2.90;1.00;;;18.70;99.90;;;;;;5137111;27;20193;-78
2022/12/22 09:31:19;;;;;;;11.88;1.50;;;18.70;99.90;;;;;;5124562;27;20226;-78
2022/12/22 09:33:50;;;;;;;5.95;1.00;;;18.60;99.90;;;;;;5113315;27;20271;-78
2022/12/22 09:36:23;;;;;;;3.85;1.20;;;18.60;99.90;;;;;;5117680;27;20191;-78
2022/12/22 09:38:54;;;;;;;4.88;1.20;;;18.60;99.90;;;;;;5113827;28;20248;-76
2022/12/22 09:41:32;;;;;;;4.75;1.02;;;18.60;99.90;;;;;;5120544;27;20298;-79
2022/12/22 09:44:06;;;;;;;3.17;1.20;;;18.60;99.90;;;;;;5130660;27;20201;-79
2022/12/22 09:46:38;;;;;;;4.45;1.00;;;18.60;99.90;;;;;;5115046;27;20278;-80
2022/12/22 09:49:11;;;;;;;3.47;1.00;;;18.60;99.90;;;;;;5116244;28;20270;-77
2022/12/22 09:51:45;;;;;;;3.53;1.05;;;18.60;99.90;;;;;;5123557;27;20214;-80
2022/12/22 09:54:16;;;;;;;4.82;1.08;;;18.60;99.90;;;;;;5122104;27;20205;-78
2022/12/22 09:56:49;;;;;;;4.32;1.10;;;18.60;99.90;;;;;;5136787;27;20194;-77
2022/12/22 09:59:20;;;;;;;4.10;1.10;;;18.60;99.90;;;;;;5119724;27;20219;-77
2022/12/22 10:02:12;;;;;;;5.25;1.30;;;18.60;99.90;;;;;;5122953;27;20560;-77
2022/12/22 10:05:02;;;;;;;2.35;0.90;;;18.60;99.90;;;;;;5122224;27;20275;-76
2022/12/22 10:07:37;;;;;;;3.83;1.10;;;18.60;99.90;;;;;;5103988;27;20202;-78
2022/12/22 10:10:16;;;;;;;5.68;1.30;;;18.60;99.90;;;;;;5135180;27;20709;-80
2022/12/22 10:12:55;;;;;;;4.70;0.95;;;18.60;99.90;;;;;;5108866;27;20277;-79
2022/12/22 10:15:26;;;;;;;2.53;1.00;;;18.60;99.90;;;;;;5111545;28;20651;-78
2022/12/22 10:18:13;;;;;;;2.53;0.85;;;18.60;99.90;;;;;;5121471;27;20582;-80
2022/12/22 10:20:46;;;;;;;4.05;0.90;;;18.60;99.90;;;;;;5136364;27;20183;-79
2022/12/22 10:23:19;;;;;;;2.33;0.90;;;18.60;99.90;;;;;;5117364;27;20187;-79
2022/12/22 10:26:07;;;;;;;6.07;1.00;;;18.60;99.90;;;;;;5118722;27;20191;-77
2022/12/22 10:28:43;;;;;;;3.28;0.98;;;18.60;99.90;;;;;;5114547;27;20286;-78
2022/12/22 10:31:20;;;;;;;2.60;1.02;;;18.60;99.90;;;;;;5110465;28;20721;-77
2022/12/22 10:33:52;;;;;;;3.83;0.90;;;18.60;99.90;;;;;;5102475;28;20194;-77
2022/12/22 10:36:26;;;;;;;2.97;0.90;;;18.60;99.90;;;;;;5111804;28;20184;-79
2022/12/22 10:39:02;;;;;;;2.70;0.77;;;18.60;99.90;;;;;;5112950;28;20236;-77
2022/12/22 10:41:36;;;;;;;3.95;0.90;;;18.60;99.90;;;;;;5114281;28;20266;-76
2022/12/22 10:44:12;;;;;;;3.65;0.88;;;18.60;99.90;;;;;;5114487;28;20278;-77
2022/12/22 10:46:45;;;;;;;2.05;0.75;;;18.60;99.90;;;;;;5115210;28;20193;-83
2022/12/22 10:49:22;;;;;;;2.15;1.00;;;18.60;99.90;;;;;;5114902;28;20191;-78
2022/12/22 10:51:57;;;;;;;2.90;0.80;;;18.60;99.90;;;;;;5114934;28;20183;-77
2022/12/22 10:54:35;;;;;;;2.03;0.65;;;18.60;99.90;;;;;;5115001;28;20707;-78
2022/12/22 10:57:08;;;;;;;2.83;0.80;;;18.50;99.90;;;;;;5113301;28;20312;-78
2022/12/22 10:59:50;;;;;;;2.70;0.80;;;18.60;99.90;;;;;;5111402;28;20207;-78
2022/12/22 11:02:29;;;;;;;3.20;0.90;;;18.50;99.90;;;;;;5110752;28;20180;-78
2022/12/22 11:05:06;;;;;;;2.05;0.80;;;18.60;99.90;;;;;;5104949;28;20179;-77
2022/12/22 11:07:38;;;;;;;4.57;0.80;;;18.60;99.90;;;;;;5114475;28;20620;-78
2022/12/22 11:10:21;;;;;;;1.70;0.80;;;18.50;99.90;;;;;;5113279;28;20193;-78
2022/12/22 11:13:12;;;;;;;1.42;0.70;;;18.60;99.90;;;;;;5111958;28;20564;-78
2022/12/22 11:15:51;;;;;;;4.00;0.88;;;18.60;99.90;;;;;;5114043;28;20628;-77
2022/12/22 11:18:40;;;;;;;1.65;0.73;;;18.60;99.90;;;;;;5106236;28;20209;-78
2022/12/22 11:21:17;;;;;;;3.50;0.90;;;18.60;99.90;;;;;;5113885;28;20237;-78
2022/12/22 11:23:55;;;;;;;1.75;0.65;;;18.60;99.90;;;;;;5113445;28;20252;-78
2022/12/22 11:26:33;;;;;;;2.70;0.90;;;18.60;99.90;;;;;;5114148;28;20287;-79
2022/12/22 11:29:34;;;;;;;3.30;0.90;;;18.60;99.90;;;;;;5113961;28;20197;-78
2022/12/22 11:32:25;;;;;;;1.55;0.85;;;18.60;99.90;;;;;;5113928;28;20193;-77
2022/12/22 11:35:02;;;;;;;1.80;0.82;;;18.60;99.90;;;;;;5104588;28;20219;-78
2022/12/22 11:37:47;;;;;;;2.67;0.75;;;18.60;99.90;;;;;;5114111;28;20298;-78
2022/12/22 11:40:28;;;;;;;2.47;0.80;;;18.60;99.90;;;;;;5113103;28;20242;-78
2022/12/22 11:43:22;;;;;;;2.13;0.85;;;18.60;99.90;;;;;;5113420;28;20634;-78
2022/12/22 11:46:14;;;;;;;1.75;0.85;;;18.60;99.90;;;;;;5109888;28;20191;-78
2022/12/22 11:49:22;;;;;;;2.97;0.90;;;18.60;99.90;;;;;;5113204;28;20187;-78
2022/12/22 11:52:06;;;;;;;2.60;0.90;;;18.50;99.90;;;;;;5103141;28;20206;-78
2022/12/22 11:55:00;;;;;;;2.78;0.90;;;18.60;99.90;;;;;;5113525;28;20271;-78
2022/12/22 11:57:38;;;;;;;2.97;0.77;;;18.60;99.90;;;;;;5101436;28;20279;-79
2022/12/22 12:00:14;;;;;;;3.03;0.98;;;18.60;99.90;;;;;;5112849;28;20211;-79
2022/12/22 12:03:14;;;;;;;3.28;0.93;;;18.60;99.90;;;;;;5113188;28;20645;-78
2022/12/22 12:06:08;;;;;;;3.38;1.08;;;18.60;99.90;;;;;;5113217;28;20200;-78
2022/12/22 12:08:49;;;;;;;1.92;0.80;;;18.60;99.90;;;;;;5112155;28;20557;-79
2022/12/22 12:11:37;;;;;;;1.75;1.05;;;18.60;99.90;;;;;;5113112;28;20262;-80
2022/12/22 12:14:21;;;;;;;2.10;1.00;;;18.60;99.90;;;;;;5113324;28;20698;-80
2022/12/22 12:16:59;;;;;;;3.50;1.00;;;18.60;99.90;;;;;;5112770;28;20543;-79
2022/12/22 12:19:50;;;;;;;2.45;1.02;;;18.60;99.90;;;;;;5111075;28;20215;-79
2022/12/22 12:22:33;;;;;;;4.82;0.82;;;18.60;99.90;;;;;;5113193;28;20188;-79
2022/12/22 12:25:16;;;;;;;2.47;0.80;;;18.60;99.90;;;;;;5112999;28;20205;-79
2022/12/22 12:28:13;;;;;;;4.40;0.88;;;18.60;99.90;;;;;;5113636;28;20264;-79
2022/12/22 12:30:53;;;;;;;4.80;0.88;;;18.60;99.90;;;;;;5114176;28;20203;-79
2022/12/22 12:33:33;;;;;;;3.75;0.90;;;18.60;99.90;;;;;;5117705;28;20194;-79
2022/12/22 12:36:11;;;;;;;3.08;1.08;;;18.60;99.90;;;;;;5116277;28;20195;-79
2022/12/22 12:38:53;;;;;;;5.47;1.10;;;18.60;99.90;;;;;;5117252;28;20231;-80
2022/12/22 12:41:29;;;;;;;2.75;0.95;;;18.60;99.90;;;;;;5113446;28;20274;-80
2022/12/22 12:44:01;;;;;;;2.20;1.00;;;18.60;99.90;;;;;;5116852;28;20184;-79
2022/12/22 12:47:08;;;;;;;2.60;1.00;;;18.60;99.90;;;;;;5117409;28;20183;-79
2022/12/22 12:49:59;;;;;;;4.82;1.17;;;18.60;99.90;;;;;;5113027;28;20289;-79
2022/12/22 12:53:06;;;;;;;3.28;0.80;;;18.60;99.90;;;;;;5116456;28;20195;-79
2022/12/22 12:56:04;;;;;;;3.80;1.15;;;18.60;99.90;;;;;;5116107;28;20187;-79
2022/12/22 12:58:52;;;;;;;3.42;0.95;;;18.60;99.90;;;;;;5117356;28;20774;-79
2022/12/22 13:01:57;;;;;;;3.63;1.00;;;18.60;99.90;;;;;;5117137;28;20213;-79
2022/12/22 13:05:14;;;;;;;2.00;1.00;;;18.60;99.90;;;;;;5113942;28;20274;-79
2022/12/22 13:08:22;;;;;;;6.15;1.20;;;18.60;99.90;;;;;;5111765;28;20229;-79
2022/12/22 13:11:24;;;;;;;4.18;1.50;;;18.60;99.90;;;;;;5071791;28;20656;-79
2022/12/22 13:13:57;;;;;;;3.20;1.20;;;18.60;99.90;;;;;;5111504;28;20199;-78
2022/12/22 13:16:33;;;;;;;2.92;1.10;;;18.50;99.90;;;;;;5113511;28;20282;-79
2022/12/22 13:19:15;;;;;;;4.68;1.70;;;18.50;99.90;;;;;;5116461;28;20203;-80
2022/12/22 13:21:47;;;;;;;4.47;1.48;;;18.50;99.90;;;;;;5113723;28;20195;-79
2022/12/22 13:24:25;;;;;;;4.78;1.35;;;18.50;99.90;;;;;;5116898;28;20187;-79
2022/12/22 13:26:57;;;;;;;3.90;1.50;;;18.50;99.90;;;;;;5116597;28;20195;-79
2022/12/22 13:29:38;;;;;;;4.00;1.10;;;18.50;99.90;;;;;;5113226;28;20187;-79
2022/12/22 13:32:26;;;;;;;5.40;1.20;;;18.50;99.90;;;;;;5115854;28;20199;-79
2022/12/22 13:35:08;;;;;;;2.70;1.33;;;18.50;99.90;;;;;;5108656;28;20294;-79
2022/12/22 13:37:44;;;;;;;3.92;1.40;;;18.50;99.90;;;;;;5116183;28;20310;-78
2022/12/22 13:40:20;;;;;;;2.90;1.15;;;18.50;99.90;;;;;;5112133;28;20215;-79
2022/12/22 13:42:54;;;;;;;3.20;1.08;;;18.50;99.90;;;;;;5112336;28;20188;-79
2022/12/22 13:45:42;;;;;;;2.97;1.30;;;18.50;99.90;;;;;;5112969;28;20530;-79
2022/12/22 13:48:18;;;;;;;3.58;1.10;;;18.50;99.90;;;;;;5116110;28;20270;-79
2022/12/22 13:50:53;;;;;;;1.90;1.08;;;18.50;99.90;;;;;;5115795;28;20286;-78
2022/12/22 13:53:32;;;;;;;2.67;1.20;;;18.50;99.90;;;;;;5116123;28;20187;-79
2022/12/22 13:56:03;;;;;;;4.63;1.15;;;18.50;99.90;;;;;;5116106;28;20275;-79
2022/12/22 13:58:38;;;;;;;3.38;0.90;;;18.50;99.90;;;;;;5115166;28;20646;-79
2022/12/22 14:01:20;;;;;;;1.98;1.17;;;18.50;99.90;;;;;;5115727;28;20298;-78
2022/12/22 14:03:56;;;;;;;2.53;1.10;;;18.50;99.90;;;;;;5104980;28;20292;-79
2022/12/22 14:06:32;;;;;;;1.85;1.00;;;18.50;99.90;;;;;;5115677;28;20677;-78
2022/12/22 14:09:17;;;;;;;3.70;1.13;;;18.50;99.90;;;;;;5114910;28;20661;-79
2022/12/22 14:11:50;;;;;;;1.83;1.00;;;18.50;99.90;;;;;;5115936;28;20183;-79
2022/12/22 14:14:23;;;;;;;3.22;1.10;;;18.50;99.90;;;;;;5115465;28;20179;-79
2022/12/22 14:16:57;;;;;;;2.90;0.80;;;18.50;99.90;;;;;;5116003;28;20291;-79
2022/12/22 14:19:32;;;;;;;5.03;1.20;;;18.40;99.90;;;;;;5115707;28;20673;-79
2022/12/22 14:22:08;;;;;;;1.73;0.88;;;18.40;99.90;;;;;;5109892;28;20275;-79
2022/12/22 14:24:45;;;;;;;3.17;1.02;;;18.30;99.90;;;;;;5114348;28;20287;-79
2022/12/22 14:27:25;;;;;;;4.65;1.35;;;18.30;99.90;;;;;;5100156;28;20275;-79
2022/12/22 14:29:56;;;;;;;3.05;1.00;;;18.30;99.90;;;;;;5095525;28;20231;-79
2022/12/22 14:32:41;;;;;;;3.97;1.10;;;18.30;99.90;;;;;;5095271;28;20196;-79
2022/12/22 14:35:27;;;;;;;2.58;1.10;;;18.20;99.90;;;;;;5110641;28;20302;-79
2022/12/22 14:38:15;;;;;;;3.75;1.10;;;18.20;99.90;;;;;;5095026;28;20309;-79
2022/12/22 14:40:47;;;;;;;3.05;1.15;;;18.10;99.90;;;;;;5106846;28;20330;-79
2022/12/22 14:43:28;;;;;;;1.15;0.90;;;18.10;99.90;;;;;;5115525;28;20188;-79
2022/12/22 14:46:08;;;;;;;2.08;1.00;;;18.00;99.90;;;;;;5115856;28;20279;-79
2022/12/22 14:48:47;;;;;;;4.40;1.10;;;18.00;99.90;;;;;;5115210;28;20213;-78
2022/12/22 14:51:21;;;;;;;4.15;0.95;;;18.00;99.90;;;;;;5115367;27;20656;-79
2022/12/22 14:53:54;;;;;;;3.53;1.20;;;17.90;99.90;;;;;;5115245;28;20286;-78
2022/12/22 14:56:26;;;;;;;3.35;1.17;;;17.90;99.90;;;;;;5115217;28;20187;-79
2022/12/22 14:59:12;;;;;;;4.28;1.00;;;17.90;99.90;;;;;;5094880;28;20192;-79
2022/12/22 15:01:57;;;;;;;5.25;1.00;;;17.80;99.90;;;;;;5094646;28;20280;-79
2022/12/22 15:04:30;;;;;;;1.88;1.00;;;17.80;99.90;;;;;;5094739;28;20268;-79
2022/12/22 15:07:15;;;;;;;3.03;1.00;;;17.80;99.90;;;;;;5094637;28;20184;-79
2022/12/22 15:09:46;;;;;;;4.32;1.17;;;17.80;99.90;;;;;;5094700;28;20678;-78
2022/12/22 15:12:18;;;;;;;1.60;1.00;;;17.80;99.90;;;;;;5094724;28;20196;-79
2022/12/22 15:14:50;;;;;;;1.77;1.17;;;17.70;99.90;;;;;;5106386;28;20670;-79
2022/12/22 15:17:26;;;;;;;4.43;1.60;;;17.70;99.90;;;;;;5103834;28;20620;-79
2022/12/22 15:20:01;;;;;;;2.35;1.10;;;17.70;99.90;;;;;;5114781;28;20229;-79
2022/12/22 15:22:33;;;;;;;1.73;1.20;;;17.60;99.90;;;;;;5114641;28;20194;-80
2022/12/22 15:25:04;;;;;;;2.90;1.10;;;17.60;99.90;;;;;;5114482;28;20283;-79
2022/12/22 15:27:34;;;;;;;2.80;1.10;;;17.60;99.90;;;;;;5114934;28;20270;-80
2022/12/22 15:30:05;;;;;;;4.43;1.08;;;17.60;99.90;;;;;;5114123;28;20198;-79
2022/12/22 15:32:36;;;;;;;1.98;0.93;;;17.60;99.90;;;;;;5098520;28;20200;-79
2022/12/22 15:35:19;;;;;;;5.25;1.35;;;17.60;99.90;;;;;;5114229;28;20302;-79
2022/12/22 15:37:50;;;;;;;3.33;1.20;;;17.60;99.90;;;;;;5093934;28;20231;-78
2022/12/22 15:40:23;;;;;;;2.85;1.17;;;17.50;99.90;;;;;;5102208;28;20204;-79
2022/12/22 15:42:54;;;;;;;4.60;1.23;;;17.50;99.90;;;;;;5114424;28;20282;-79
2022/12/22 15:45:28;;;;;;;3.08;1.25;;;17.50;99.90;;;;;;5114078;28;20187;-79
2022/12/22 15:48:01;;;;;;;3.05;1.20;;;17.50;99.90;;;;;;5113837;28;20195;-79
2022/12/22 15:50:37;;;;;;;2.63;1.17;;;17.50;99.90;;;;;;5112470;28;20274;-79
2022/12/22 15:53:09;;;;;;;3.22;1.15;;;17.50;99.90;;;;;;5112603;28;20198;-79
2022/12/22 15:55:44;;;;;;;4.35;1.25;;;17.50;99.90;;;;;;5112658;28;20199;-79
2022/12/22 15:58:17;;;;;;;2.38;1.00;;;17.40;99.90;;;;;;5113566;28;20669;-79
2022/12/22 16:00:48;;;;;;;2.33;1.20;;;17.40;99.90;;;;;;5113645;28;20211;-79
2022/12/22 16:03:19;;;;;;;2.60;1.10;;;17.30;99.90;;;;;;5113190;28;20542;-79
2022/12/22 16:05:53;;;;;;;4.38;1.55;;;17.30;99.90;;;;;;5105637;28;20294;-79
2022/12/22 16:08:30;;;;;;;2.70;1.40;;;17.30;99.90;;;;;;5105173;28;20207;-79
2022/12/22 16:11:01;;;;;;;2.78;1.25;;;17.30;99.90;;;;;;5093681;28;20194;-78
2022/12/22 16:13:32;;;;;;;2.22;1.10;;;17.30;99.90;;;;;;5093297;28;20275;-79
2022/12/22 16:16:03;;;;;;;2.45;1.10;;;17.30;99.90;;;;;;5093770;28;20279;-79
2022/12/22 16:18:34;;;;;;;2.83;1.20;;;17.30;99.90;;;;;;5093601;28;20267;-78
2022/12/22 16:21:09;;;;;;;2.63;1.33;;;17.30;99.90;;;;;;5106373;28;20214;-78
2022/12/22 16:23:42;;;;;;;4.28;1.40;;;17.30;99.90;;;;;;5113372;28;20286;-79
2022/12/22 16:26:16;;;;;;;4.03;1.40;;;17.30;99.90;;;;;;5113842;28;20187;-79
2022/12/22 16:28:47;;;;;;;2.75;1.33;;;17.30;99.90;;;;;;5113794;28;20269;-78
2022/12/22 16:31:20;;;;;;;3.20;1.25;;;17.30;99.90;;;;;;5113727;28;20196;-79
2022/12/22 16:33:52;;;;;;;2.25;1.15;;;17.30;99.90;;;;;;5113373;28;20220;-78
2022/12/22 16:36:25;;;;;;;3.80;1.27;;;17.30;99.90;;;;;;5102249;28;20289;-78
2022/12/22 16:38:56;;;;;;;3.65;1.23;;;17.30;99.90;;;;;;5113435;28;20330;-79
2022/12/22 16:41:27;;;;;;;3.88;1.25;;;17.30;99.90;;;;;;5113464;28;20215;-79
2022/12/22 16:44:01;;;;;;;4.35;1.30;;;17.40;99.90;;;;;;5113427;28;20283;-79
2022/12/22 16:46:31;;;;;;;2.28;1.00;;;17.40;99.90;;;;;;5113557;28;20183;-79
2022/12/22 16:49:02;;;;;;;1.67;1.05;;;17.40;99.90;;;;;;5113585;28;20190;-79
2022/12/22 16:51:38;;;;;;;3.08;1.20;;;17.40;99.90;;;;;;5113538;28;20219;-78
2022/12/22 16:54:14;;;;;;;2.47;1.30;;;17.40;99.90;;;;;;5113546;28;20210;-79
2022/12/22 16:56:46;;;;;;;5.25;1.42;;;17.40;99.90;;;;;;5113394;28;20650;-78
2022/12/22 16:59:17;;;;;;;5.10;1.40;;;17.40;99.90;;;;;;5113386;28;20191;-78
2022/12/22 17:01:51;;;;;;;3.17;1.35;;;17.40;99.90;;;;;;5112852;28;20231;-79
2022/12/22 17:04:24;;;;;;;2.72;1.10;;;17.50;99.90;;;;;;5113302;28;20192;-79
2022/12/22 17:06:59;;;;;;;2.97;1.20;;;17.50;99.90;;;;;;5106843;28;20196;-79
2022/12/22 17:09:33;;;;;;;1.83;1.35;;;17.50;99.90;;;;;;5092941;28;20192;-79
2022/12/22 17:12:06;;;;;;;2.00;1.27;;;17.50;99.90;;;;;;5092736;28;20730;-78